createdAt,value
2022-11-02T00:05:44.514Z,100761.00
2022-11-02T00:15:44.591Z,100753.00
2022-11-02T00:25:44.536Z,100763.00
2022-11-02T00:35:44.549Z,100759.00
2022-11-02T00:45:44.629Z,100751.00
2022-11-02T00:55:44.677Z,100757.00
2022-11-02T01:05:44.693Z,100759.00
2022-11-02T01:15:46.715Z,100759.00
2022-11-02T01:25:46.657Z,100761.00
2022-11-02T01:35:46.606Z,100763.00
2022-11-02T01:45:46.796Z,100761.00
2022-11-02T01:55:47.563Z,100761.00
2022-11-02T02:05:48.649Z,100765.00
2022-11-02T02:15:48.799Z,100761.00
2022-11-02T02:25:49.491Z,100763.00
2022-11-02T02:35:48.723Z,100761.00
2022-11-02T02:45:48.848Z,100763.00
2022-11-02T02:55:48.732Z,100767.00
2022-11-02T03:05:48.832Z,100773.00
2022-11-02T03:15:48.868Z,100777.00
2022-11-02T03:25:49.181Z,100784.00
2022-11-02T03:35:49.840Z,100803.00
2022-11-02T03:45:50.407Z,100815.00
2022-11-02T03:55:50.036Z,100826.00
2022-11-02T04:05:51.726Z,100838.00
2022-11-02T04:15:51.963Z,100844.00
2022-11-02T04:25:53.756Z,100862.00
2022-11-02T04:35:53.467Z,100875.00
2022-11-02T04:45:53.754Z,100879.00
2022-11-02T04:55:53.108Z,100897.00
2022-11-02T05:05:53.065Z,100909.00
2022-11-02T05:15:53.203Z,100920.00
2022-11-02T05:25:53.208Z,100924.00
2022-11-02T05:35:53.139Z,100938.00
2022-11-02T05:45:52.990Z,100942.00
2022-11-02T05:55:52.985Z,100956.00
2022-11-02T06:05:53.045Z,100967.00
2022-11-02T06:15:53.003Z,100985.00
2022-11-02T06:25:53.077Z,100993.00
2022-11-02T06:35:53.060Z,101003.00
2022-11-02T06:45:53.008Z,101018.00
2022-11-02T06:55:53.068Z,101030.00
2022-11-02T07:05:55.400Z,101064.00
2022-11-02T07:15:55.078Z,101088.00
2022-11-02T07:25:55.157Z,101109.00
2022-11-02T07:35:55.278Z,101131.00
2022-11-02T07:45:58.403Z,101150.00
2022-11-02T07:55:58.092Z,101170.00
2022-11-02T08:05:58.127Z,101186.00
2022-11-02T08:15:58.155Z,101195.00
2022-11-02T08:25:58.223Z,101199.00
2022-11-02T08:35:58.187Z,101201.00
2022-11-02T08:46:14.354Z,101211.00
2022-11-02T08:55:59.313Z,101219.00
2022-11-02T09:05:59.237Z,101223.00
2022-11-02T09:15:59.203Z,101235.00
2022-11-02T09:25:59.226Z,101231.00
2022-11-02T09:35:59.345Z,101238.00
2022-11-02T09:45:59.322Z,101252.00
2022-11-02T09:55:59.288Z,101252.00
2022-11-02T10:05:59.378Z,101258.00
2022-11-02T10:15:59.281Z,101266.00
2022-11-02T10:25:59.419Z,101270.00
2022-11-02T10:46:00.454Z,101270.00
2022-11-02T10:56:00.307Z,101270.00
2022-11-02T11:06:00.405Z,101272.00
2022-11-02T11:16:00.490Z,101276.00
2022-11-02T11:26:00.387Z,101280.00
2022-11-02T11:36:00.415Z,101285.00
2022-11-02T11:46:05.222Z,101287.00
2022-11-02T11:56:02.466Z,101282.00
2022-11-02T12:06:02.436Z,101274.00
2022-11-02T12:16:02.424Z,101262.00
2022-11-02T12:26:05.014Z,101256.00
2022-11-02T12:36:03.458Z,101252.00
2022-11-02T12:46:03.487Z,101248.00
2022-11-02T12:56:03.538Z,101244.00
2022-11-02T13:06:03.615Z,101240.00
2022-11-02T13:16:03.583Z,101231.00
2022-11-02T13:26:03.657Z,101225.00
2022-11-02T13:36:03.634Z,101223.00
2022-11-02T13:46:03.596Z,101213.00
2022-11-02T13:56:03.663Z,101205.00
2022-11-02T14:06:03.653Z,101203.00
2022-11-02T14:16:03.710Z,101199.00
2022-11-02T14:26:03.683Z,101191.00
2022-11-02T14:36:03.755Z,101188.00
2022-11-02T14:46:06.654Z,101182.00
2022-11-02T14:56:05.745Z,101176.00
2022-11-02T15:06:05.903Z,101168.00
2022-11-02T15:16:05.767Z,101156.00
2022-11-02T15:26:05.746Z,101148.00
2022-11-02T15:36:05.821Z,101139.00
2022-11-02T15:46:09.211Z,101135.00
2022-11-02T15:56:06.787Z,101129.00
2022-11-02T16:06:06.713Z,101131.00
2022-11-02T16:16:06.825Z,101131.00
2022-11-02T16:26:06.787Z,101129.00
2022-11-02T16:36:06.785Z,101131.00
2022-11-02T16:46:06.823Z,101131.00
2022-11-02T16:56:06.905Z,101141.00
2022-11-02T17:06:06.802Z,101141.00
2022-11-02T17:16:06.891Z,101144.00
2022-11-02T17:26:06.842Z,101139.00
2022-11-02T17:36:06.874Z,101139.00
2022-11-02T17:46:06.879Z,101141.00
2022-11-02T17:56:06.916Z,101141.00
2022-11-02T18:06:06.894Z,101139.00
2022-11-02T18:16:06.909Z,101141.00
2022-11-02T18:26:06.911Z,101127.00
2022-11-02T18:36:06.991Z,101123.00
2022-11-02T18:46:07.091Z,101115.00
2022-11-02T18:56:07.030Z,101105.00
2022-11-02T19:06:06.995Z,101097.00
2022-11-02T19:16:07.092Z,101096.00
2022-11-02T19:26:07.042Z,101096.00
2022-11-02T19:36:07.032Z,101090.00
2022-11-02T19:46:07.093Z,101076.00
2022-11-02T19:56:07.061Z,101062.00
2022-11-02T20:06:07.118Z,101044.00
2022-11-02T20:16:12.223Z,101032.00
2022-11-02T20:26:12.081Z,101024.00
2022-11-02T20:36:12.152Z,101014.00
2022-11-02T20:56:13.089Z,100999.00
2022-11-02T21:06:13.198Z,100989.00
2022-11-02T21:16:13.133Z,100975.00
2022-11-02T21:26:13.122Z,100965.00
2022-11-02T21:36:13.183Z,100960.00
2022-11-02T21:46:13.215Z,100950.00
2022-11-02T21:56:16.247Z,100942.00
2022-11-02T22:06:16.265Z,100934.00
2022-11-02T22:16:16.258Z,100924.00
2022-11-02T22:26:16.208Z,100922.00
2022-11-02T22:36:16.262Z,100915.00
2022-11-02T22:46:16.252Z,100897.00
2022-11-02T22:56:16.307Z,100881.00
2022-11-02T23:06:16.281Z,100871.00
2022-11-02T23:16:16.315Z,100858.00
2022-11-02T23:26:16.321Z,100844.00
2022-11-02T23:36:16.280Z,100826.00
2022-11-02T23:46:16.365Z,100820.00
2022-11-02T23:56:16.358Z,100822.00
